Time;durP1;ratioP1;P1;durP2;ratioP2;P2;SDS_P1;SDS_P2;PMS_P1;PMS_P2;Temp;Humidity;BMP_temperature;BMP_pressure;BME280_temperature;BME280_humidity;BME280_pressure;Samples;Min_cycle;Max_cycle;Signal;HPM_P1;HPM_P2
2022/05/24 00:00:01;;;;;;;;;;;;;;;17.06;88.76;98747.13;1087492;54;19946;-79
2022/05/24 00:01:04;;;;;;;;;;;;;;;16.97;89.60;98743.03;1087548;54;19966;-82
2022/05/24 00:02:06;;;;;;;;;;;;;;;16.92;89.65;98748.25;1090824;39;20488;-80
2022/05/24 00:03:10;;;;;;;;;;;;;;;17.04;89.02;98749.25;1087930;54;19951;-78
2022/05/24 00:04:14;;;;;;;;;;;;;;;17.07;88.96;98740.69;1088272;54;19926;-80
2022/05/24 00:05:18;;;;;;;;;;;;;;;17.04;88.99;98743.84;1088114;54;20698;-78
2022/05/24 00:06:19;;;;;;;;;;;;;;;17.11;89.00;98741.91;1088205;54;19966;-81
2022/05/24 00:07:23;;;;;;;;;;;;;;;17.05;88.88;98747.34;1087660;39;20373;-79
2022/05/24 00:08:25;;;;;;;;;;;;;;;17.17;88.18;98739.38;1087748;54;19926;-81
2022/05/24 00:09:29;;;;;;;;;;;;;;;17.15;88.47;98739.59;1087676;54;19974;-81
2022/05/24 00:10:33;;;;;;;;;;;;;;;17.15;88.00;98734.19;1090504;39;20407;-79
2022/05/24 00:11:36;;;;;;;;;;;;;;;17.19;87.62;98730.03;1088301;54;19950;-81
2022/05/24 00:12:39;;;;;;;;;;;;;;;17.11;87.19;98741.06;1089095;39;20431;-80
2022/05/24 00:13:43;;;;;;;;;;;;;;;17.19;87.05;98735.44;1088492;54;19934;-81
2022/05/24 00:16:03;;;;;;;;;;;;;;;17.12;87.38;98740.03;1088275;54;19943;-79
2022/05/24 00:17:05;;;;;;;;;;;;;;;17.20;87.41;98736.25;1088462;39;20439;-79
2022/05/24 00:18:10;;;;;;;;;;;;;;;17.25;86.87;98742.63;1088032;54;19951;-81
2022/05/24 00:19:14;;;;;;;;;;;;;;;17.29;86.59;98743.00;1088146;54;19935;-81
2022/05/24 00:20:17;;;;;;;;;;;;;;;17.37;86.38;98741.91;1093210;31;20479;-79
2022/05/24 00:21:21;;;;;;;;;;;;;;;17.35;86.18;98744.81;1087413;54;19946;-81
2022/05/24 00:22:22;;;;;;;;;;;;;;;17.33;86.36;98748.81;1087094;54;19947;-79
2022/05/24 00:23:27;;;;;;;;;;;;;;;17.38;86.57;98749.78;1087304;54;20694;-77
2022/05/24 00:24:28;;;;;;;;;;;;;;;17.42;86.17;98751.03;1086563;54;19951;-79
2022/05/24 00:25:34;;;;;;;;;;;;;;;17.27;85.94;98758.59;1087132;54;19945;-80
2022/05/24 00:26:36;;;;;;;;;;;;;;;17.35;86.21;98760.22;1087577;46;19963;-81
2022/05/24 00:27:41;;;;;;;;;;;;;;;17.37;86.21;98750.84;1087105;54;19951;-79
2022/05/24 00:28:45;;;;;;;;;;;;;;;17.45;85.82;98750.56;1088253;54;19971;-81
2022/05/24 00:29:46;;;;;;;;;;;;;;;17.49;86.40;98750.94;1093624;46;19943;-78
2022/05/24 00:30:51;;;;;;;;;;;;;;;17.39;85.46;98747.91;1088818;46;19941;-80
2022/05/24 00:31:54;;;;;;;;;;;;;;;17.45;85.44;98752.44;1088186;46;19966;-81
2022/05/24 00:32:59;;;;;;;;;;;;;;;17.40;85.72;98747.72;1088131;46;19946;-79
2022/05/24 00:34:00;;;;;;;;;;;;;;;17.39;85.91;98750.59;1089140;46;19973;-79
2022/05/24 00:35:18;;;;;;;;;;;;;;;17.31;85.03;98752.53;1089307;46;19943;-80
2022/05/24 00:36:19;;;;;;;;;;;;;;;17.27;85.18;98742.41;1088173;54;19934;-80
2022/05/24 00:37:31;;;;;;;;;;;;;;;17.13;84.15;98744.38;1088183;54;19958;-79
2022/05/24 00:38:36;;;;;;;;;;;;;;;17.17;84.44;98747.47;1088327;54;19943;-78
2022/05/24 00:39:51;;;;;;;;;;;;;;;17.17;84.65;98747.47;1089717;46;19922;-80
2022/05/24 00:41:00;;;;;;;;;;;;;;;17.20;84.53;98755.13;1087856;54;19979;-81
2022/05/24 00:42:03;;;;;;;;;;;;;;;17.24;84.33;98753.66;1090093;46;19939;-79
2022/05/24 00:43:26;;;;;;;;;;;;;;;17.23;84.68;98755.53;1088145;54;19949;-80
2022/05/24 00:44:29;;;;;;;;;;;;;;;17.20;84.57;98753.25;1088170;54;19950;-79
2022/05/24 00:45:34;;;;;;;;;;;;;;;17.17;85.01;98751.00;1088577;47;19947;-79
2022/05/24 00:46:41;;;;;;;;;;;;;;;17.10;83.49;98745.66;1088028;54;20008;-79
2022/05/24 00:47:51;;;;;;;;;;;;;;;17.18;84.07;98747.28;1088389;47;19955;-79
2022/05/24 00:48:54;;;;;;;;;;;;;;;17.19;84.18;98742.69;1087694;54;19974;-78
2022/05/24 00:49:59;;;;;;;;;;;;;;;17.21;84.11;98740.59;1086634;54;19973;-78
2022/05/24 00:51:03;;;;;;;;;;;;;;;17.18;84.19;98741.88;1087748;39;20403;-80
2022/05/24 00:52:10;;;;;;;;;;;;;;;17.20;84.00;98744.34;1088112;54;19949;-79
2022/05/24 00:53:18;;;;;;;;;;;;;;;17.17;84.04;98740.22;1091157;39;20369;-80
2022/05/24 00:54:22;;;;;;;;;;;;;;;17.07;84.32;98737.16;1087938;54;19946;-78
2022/05/24 00:55:25;;;;;;;;;;;;;;;17.11;84.42;98741.06;1088066;54;19942;-80
2022/05/24 00:56:44;;;;;;;;;;;;;;;17.05;84.88;98739.25;1091034;39;20557;-79
2022/05/24 00:57:50;;;;;;;;;;;;;;;17.05;83.87;98750.06;1087574;54;19954;-78
2022/05/24 00:58:56;;;;;;;;;;;;;;;17.03;84.64;98752.13;1086994;54;19949;-78
2022/05/24 01:00:01;;;;;;;;;;;;;;;17.02;83.37;98739.69;1087498;54;19946;-77
2022/05/24 01:01:08;;;;;;;;;;;;;;;17.09;83.34;98745.88;1086598;54;19950;-77
2022/05/24 01:02:12;;;;;;;;;;;;;;;17.11;83.45;98749.16;1087692;54;19950;-78
2022/05/24 01:03:15;;;;;;;;;;;;;;;17.11;83.48;98755.41;1088310;54;19919;-79
2022/05/24 01:04:20;;;;;;;;;;;;;;;17.04;83.19;98748.41;1088321;54;19954;-80
2022/05/24 01:05:22;;;;;;;;;;;;;;;17.14;82.70;98743.34;1087736;31;20489;-79
2022/05/24 01:06:28;;;;;;;;;;;;;;;17.04;82.88;98743.84;1087191;54;19957;-80
2022/05/24 01:07:29;;;;;;;;;;;;;;;16.93;82.15;98756.16;1087236;54;19950;-81
2022/05/24 01:08:33;;;;;;;;;;;;;;;16.95;81.99;98762.16;1088000;54;19951;-81
2022/05/24 01:09:37;;;;;;;;;;;;;;;16.86;82.29;98758.03;1087089;54;19927;-80
2022/05/24 01:10:45;;;;;;;;;;;;;;;16.92;81.90;98748.25;1088125;54;20583;-80
2022/05/24 01:11:49;;;;;;;;;;;;;;;16.94;82.64;98741.59;1088350;54;19927;-80
2022/05/24 01:12:54;;;;;;;;;;;;;;;16.99;82.50;98739.09;1088243;54;20958;-79
2022/05/24 01:13:57;;;;;;;;;;;;;;;17.08;82.09;98744.22;1089098;39;20557;-80
2022/05/24 01:15:03;;;;;;;;;;;;;;;17.08;81.90;98741.53;1089039;39;20752;-80
2022/05/24 01:16:04;;;;;;;;;;;;;;;17.10;81.97;98752.91;1088087;54;19966;-80
2022/05/24 01:17:09;;;;;;;;;;;;;;;17.03;81.81;98742.19;1088032;54;19998;-80
2022/05/24 01:18:10;;;;;;;;;;;;;;;17.01;81.63;98749.66;1088099;54;19949;-80
2022/05/24 01:19:19;;;;;;;;;;;;;;;17.09;81.77;98745.88;1087976;54;20005;-79
2022/05/24 01:20:20;;;;;;;;;;;;;;;17.10;81.83;98742.13;1088071;54;20986;-81
2022/05/24 01:21:25;;;;;;;;;;;;;;;17.15;81.70;98745.00;1088231;54;19943;-80
2022/05/24 01:22:45;;;;;;;;;;;;;;;17.06;81.46;98744.44;1088324;54;19942;-79
2022/05/24 01:23:54;;;;;;;;;;;;;;;17.06;81.57;98741.72;1088216;54;19943;-80
2022/05/24 01:24:59;;;;;;;;;;;;;;;17.10;81.63;98747.50;1088261;54;19943;-81
2022/05/24 01:26:06;;;;;;;;;;;;;;;17.07;81.65;98743.38;1088250;54;19947;-81
2022/05/24 01:27:10;;;;;;;;;;;;;;;17.09;81.74;98737.78;1088334;54;19942;-80
2022/05/24 01:28:18;;;;;;;;;;;;;;;17.18;81.73;98747.28;1087607;54;19923;-78
2022/05/24 01:29:20;;;;;;;;;;;;;;;17.25;81.42;98750.72;1086974;54;19939;-80
2022/05/24 01:30:24;;;;;;;;;;;;;;;17.30;81.17;98742.78;1087999;54;19927;-80
2022/05/24 01:36:09;;;;;;;;;;;;;;;17.35;80.99;98739.41;1087953;54;19943;-79
2022/05/24 01:36:41;;;;;;;;;;;;;;;17.36;81.35;98737.56;1088374;54;19990;-80
2022/05/24 01:37:43;;;;;;;;;;;;;;;17.43;81.33;98735.63;1088457;54;19954;-78
2022/05/24 01:38:52;;;;;;;;;;;;;;;17.31;81.48;98735.53;1088671;54;19982;-79
2022/05/24 01:39:54;;;;;;;;;;;;;;;17.32;81.65;98745.28;1088885;54;19930;-80
2022/05/24 01:41:01;;;;;;;;;;;;;;;17.41;81.48;98748.53;1088849;54;19927;-78
2022/05/24 01:42:05;;;;;;;;;;;;;;;17.34;81.53;98739.66;1088756;54;19943;-80
2022/05/24 01:43:10;;;;;;;;;;;;;;;17.35;81.48;98741.31;1091367;46;19950;-80
2022/05/24 01:44:15;;;;;;;;;;;;;;;17.44;81.26;98735.41;1087900;54;20019;-79
2022/05/24 01:45:18;;;;;;;;;;;;;;;17.36;81.75;98741.09;1088503;54;19927;-80
2022/05/24 01:46:24;;;;;;;;;;;;;;;17.21;82.04;98738.72;1088779;54;19963;-78
2022/05/24 01:47:55;;;;;;;;;;;;;;;17.18;82.16;98728.38;1088791;54;19933;-78
2022/05/24 02:48:39;;;;;;;;;;;;;;;16.53;83.79;98732.09;1082531;46;20170;-80
2022/05/24 02:49:40;;;;;;;;;;;;;;;16.50;83.59;98722.53;1088334;54;19926;-80
2022/05/24 02:53:46;;;;;;;;;;;;;;;16.42;83.35;98720.09;1088408;54;19919;-82
2022/05/24 03:50:48;;;;;;;;;;;;;;;16.38;80.51;98730.50;1088120;54;19935;-82
2022/05/24 03:51:50;;;;;;;;;;;;;;;16.53;80.27;98732.91;1088534;54;19931;-79
2022/05/24 03:52:54;;;;;;;;;;;;;;;16.55;79.77;98734.56;1088523;54;19966;-80
2022/05/24 03:53:56;;;;;;;;;;;;;;;16.53;79.58;98729.41;1088661;54;19927;-81
2022/05/24 03:54:59;;;;;;;;;;;;;;;16.46;79.73;98728.56;1088626;54;19930;-81
2022/05/24 03:56:01;;;;;;;;;;;;;;;16.48;80.00;98734.59;1088563;54;19950;-81
2022/05/24 03:58:23;;;;;;;;;;;;;;;16.49;80.28;98728.97;1088579;54;19926;-80
2022/05/24 03:59:27;;;;;;;;;;;;;;;16.46;80.08;98734.81;1088382;54;19965;-81
2022/05/24 04:00:32;;;;;;;;;;;;;;;16.46;80.12;98737.50;1088511;54;19941;-83
2022/05/24 04:01:33;;;;;;;;;;;;;;;16.46;80.50;98736.66;1088625;54;19958;-81
2022/05/24 04:02:38;;;;;;;;;;;;;;;16.43;80.75;98737.13;1088550;54;19939;-83
2022/05/24 04:03:42;;;;;;;;;;;;;;;16.47;80.65;98732.94;1094254;46;19950;-81
2022/05/24 04:04:46;;;;;;;;;;;;;;;16.61;80.14;98737.22;1088620;54;19946;-80
2022/05/24 04:05:52;;;;;;;;;;;;;;;16.68;79.99;98731.78;1088594;54;19924;-80
2022/05/24 04:06:54;;;;;;;;;;;;;;;16.76;79.39;98738.78;1088392;54;19942;-80
2022/05/24 04:07:57;;;;;;;;;;;;;;;16.77;79.24;98732.34;1093908;39;20418;-80
2022/05/24 04:09:00;;;;;;;;;;;;;;;16.82;79.23;98729.81;1088555;54;20000;-82
2022/05/24 04:10:04;;;;;;;;;;;;;;;16.73;79.35;98734.66;1088535;54;19942;-80
2022/05/24 04:11:10;;;;;;;;;;;;;;;16.73;79.35;98733.81;1095646;39;20506;-81
2022/05/24 04:12:11;;;;;;;;;;;;;;;16.75;79.89;98739.84;1088547;54;19942;-81
2022/05/24 04:13:15;;;;;;;;;;;;;;;16.80;79.27;98740.03;1088582;54;19939;-81
2022/05/24 04:14:17;;;;;;;;;;;;;;;16.84;78.84;98742.06;1098243;39;20364;-83
2022/05/24 04:15:28;;;;;;;;;;;;;;;16.88;78.55;98742.47;1088620;54;19926;-83
2022/05/24 04:16:29;;;;;;;;;;;;;;;16.90;78.65;98734.13;1088497;54;19954;-81
2022/05/24 04:17:34;;;;;;;;;;;;;;;16.88;77.98;98744.31;1088435;54;19950;-81
2022/05/24 04:18:36;;;;;;;;;;;;;;;16.91;78.04;98741.19;1088568;54;19943;-84
2022/05/24 04:19:40;;;;;;;;;;;;;;;16.88;77.99;98750.56;1088523;54;19938;-81
2022/05/24 04:20:44;;;;;;;;;;;;;;;16.92;78.09;98748.25;1089601;46;19981;-82
2022/05/24 04:21:50;;;;;;;;;;;;;;;16.93;78.09;98752.59;1088355;54;19931;-81
2022/05/24 04:22:55;;;;;;;;;;;;;;;16.94;78.17;98754.28;1088467;54;20459;-81
2022/05/24 04:24:02;;;;;;;;;;;;;;;16.91;77.80;98752.81;1097074;31;20449;-81
2022/05/24 04:58:33;;;;;;;;;;;;;;;16.88;78.23;98766.75;1088308;54;19942;-79
2022/05/24 04:59:41;;;;;;;;;;;;;;;16.89;78.80;98779.19;1091368;46;19943;-79
2022/05/24 05:01:12;;;;;;;;;;;;;;;16.97;78.23;98770.88;1088025;54;19938;-79
2022/05/24 05:02:13;;;;;;;;;;;;;;;16.95;78.24;98775.66;1089638;46;19939;-79
2022/05/24 05:03:21;;;;;;;;;;;;;;;16.93;78.73;98774.19;1095931;39;20522;-79
2022/05/24 05:04:24;;;;;;;;;;;;;;;16.89;78.69;98783.75;1088263;54;19948;-79
2022/05/24 05:05:27;;;;;;;;;;;;;;;16.89;78.80;98781.91;1088117;54;20506;-79
2022/05/24 05:06:29;;;;;;;;;;;;;;;16.89;79.22;98786.47;1088276;54;19966;-78
2022/05/24 05:07:33;;;;;;;;;;;;;;;16.88;78.64;98787.50;1088200;54;19942;-77
2022/05/24 05:08:35;;;;;;;;;;;;;;;16.95;78.54;98791.84;1088244;54;19943;-78
2022/05/24 05:09:39;;;;;;;;;;;;;;;16.99;78.49;98785.00;1088236;54;19933;-78
2022/05/24 05:10:41;;;;;;;;;;;;;;;16.96;78.24;98784.56;1088232;54;20621;-78
2022/05/24 05:11:45;;;;;;;;;;;;;;;16.90;78.22;98780.88;1088256;54;19978;-78
2022/05/24 05:12:49;;;;;;;;;;;;;;;16.86;78.62;98787.72;1088113;54;19950;-78
2022/05/24 05:13:51;;;;;;;;;;;;;;;16.84;79.02;98789.81;1088052;54;19950;-78
2022/05/24 05:14:58;;;;;;;;;;;;;;;16.82;79.63;98794.59;1088266;54;19990;-78
2022/05/24 05:15:59;;;;;;;;;;;;;;;16.88;79.21;98788.34;1088007;54;19958;-78
2022/05/24 05:17:21;;;;;;;;;;;;;;;16.83;79.60;98796.25;1088011;54;19954;-78
2022/05/24 05:18:26;;;;;;;;;;;;;;;16.71;80.19;98798.81;1088253;54;19942;-77
2022/05/24 05:19:31;;;;;;;;;;;;;;;16.83;79.75;98791.69;1088234;54;19942;-78
2022/05/24 05:20:36;;;;;;;;;;;;;;;16.76;79.70;98800.84;1089840;46;19990;-78
2022/05/24 05:21:42;;;;;;;;;;;;;;;16.82;79.78;98799.97;1088203;54;19944;-78
2022/05/24 05:22:43;;;;;;;;;;;;;;;16.92;79.39;98802.22;1088068;54;19938;-78
2022/05/24 05:23:47;;;;;;;;;;;;;;;16.84;79.70;98804.16;1088195;54;19950;-78
2022/05/24 05:24:49;;;;;;;;;;;;;;;16.77;80.02;98810.59;1088260;54;19982;-78
2022/05/24 05:25:53;;;;;;;;;;;;;;;16.78;80.50;98806.88;1088062;54;19927;-78
2022/05/24 05:26:54;;;;;;;;;;;;;;;16.81;80.75;98814.53;1088073;54;19927;-79
2022/05/24 05:27:58;;;;;;;;;;;;;;;16.77;80.55;98805.22;1088230;54;19942;-78
2022/05/24 05:29:00;;;;;;;;;;;;;;;16.73;80.97;98806.69;1088107;54;20014;-78
2022/05/24 05:31:22;;;;;;;;;;;;;;;16.63;81.77;98799.88;1093684;39;20504;-77
2022/05/24 05:32:26;;;;;;;;;;;;;;;16.79;81.43;98797.72;1089569;31;20645;-77
2022/05/24 05:33:36;;;;;;;;;;;;;;;16.91;80.67;98792.47;1087857;54;19943;-77
2022/05/24 05:35:15;;;;;;;;;;;;;;;17.02;79.81;98801.78;1094243;39;20577;-77
2022/05/24 05:36:46;;;;;;;;;;;;;;;;;;;;;
2022/05/24 05:38:11;;;;;;;;;;;;;;;17.15;79.13;98790.91;1087897;39;20602;-77
2022/05/24 05:39:13;;;;;;;;;;;;;;;17.16;78.95;98800.66;1087549;54;19946;-78
2022/05/24 05:40:19;;;;;;;;;;;;;;;17.13;79.50;98801.09;1087986;54;19933;-78
2022/05/24 05:41:21;;;;;;;;;;;;;;;16.96;80.08;98817.81;1087964;54;20666;-78
2022/05/24 05:42:42;;;;;;;;;;;;;;;17.06;79.76;98816.50;1088162;54;19927;-78
2022/05/24 05:43:47;;;;;;;;;;;;;;;17.15;79.20;98813.31;1088090;54;19951;-78
2022/05/24 05:44:51;;;;;;;;;;;;;;;17.22;78.93;98813.28;1088046;54;19950;-78
2022/05/24 05:45:53;;;;;;;;;;;;;;;17.26;78.64;98816.38;1088215;54;19938;-78
2022/05/24 05:46:58;;;;;;;;;;;;;;;17.25;78.90;98818.25;1088238;54;19943;-78
2022/05/24 05:48:03;;;;;;;;;;;;;;;17.28;78.20;98819.69;1088172;54;19927;-79
2022/05/24 05:49:11;;;;;;;;;;;;;;;17.34;77.87;98815.28;1088243;54;19927;-78
2022/05/24 05:50:16;;;;;;;;;;;;;;;17.35;77.98;98811.53;1094842;39;20636;-78
2022/05/24 05:51:18;;;;;;;;;;;;;;;17.21;78.34;98814.31;1092848;39;20370;-79
2022/05/24 05:52:22;;;;;;;;;;;;;;;17.15;79.17;98818.72;1091175;39;20489;-78
2022/05/24 05:53:23;;;;;;;;;;;;;;;17.09;79.31;98824.19;1089650;47;19939;-78
2022/05/24 05:54:27;;;;;;;;;;;;;;;17.03;79.65;98823.16;1094992;39;20995;-78
2022/05/24 05:55:29;;;;;;;;;;;;;;;17.11;80.21;98827.47;1092268;39;20970;-77
2022/05/24 05:56:33;;;;;;;;;;;;;;;17.21;79.53;98824.31;1088061;54;19923;-78
2022/05/24 05:57:34;;;;;;;;;;;;;;;17.18;79.77;98830.97;1088130;54;20010;-78
2022/05/24 05:58:38;;;;;;;;;;;;;;;17.17;79.61;98817.66;1089472;39;20339;-79
2022/05/24 05:59:42;;;;;;;;;;;;;;;17.21;79.64;98818.91;1088232;54;19933;-78
2022/05/24 06:00:48;;;;;;;;;;;;;;;17.18;79.28;98822.03;1088220;54;19933;-79
2022/05/24 06:01:52;;;;;;;;;;;;;;;17.21;79.37;98819.72;1088485;47;19949;-78
2022/05/24 06:02:54;;;;;;;;;;;;;;;17.19;79.72;98821.00;1088134;54;19939;-79
2022/05/24 06:04:01;;;;;;;;;;;;;;;17.28;78.94;98817.81;1088228;54;19986;-79
2022/05/24 06:05:06;;;;;;;;;;;;;;;17.38;78.84;98811.09;1088238;54;19957;-79
2022/05/24 06:06:16;;;;;;;;;;;;;;;17.46;78.32;98810.84;1088234;54;19943;-79
2022/05/24 06:07:25;;;;;;;;;;;;;;;17.38;78.70;98820.03;1088281;54;19946;-79
2022/05/24 06:08:27;;;;;;;;;;;;;;;17.48;78.87;98808.72;1088279;54;19973;-79
2022/05/24 06:09:36;;;;;;;;;;;;;;;17.59;77.99;98818.00;1088293;54;19934;-81
2022/05/24 06:10:40;;;;;;;;;;;;;;;17.66;77.53;98815.25;1088218;54;19949;-79
2022/05/24 06:11:46;;;;;;;;;;;;;;;17.68;76.88;98808.56;1088053;54;20032;-80
2022/05/24 06:13:21;;;;;;;;;;;;;;;17.53;77.12;98811.59;1087943;54;19949;-79
2022/05/24 06:14:25;;;;;;;;;;;;;;;17.75;76.08;98819.31;1087941;54;19990;-79
2022/05/24 06:15:27;;;;;;;;;;;;;;;17.87;76.08;98816.72;1087832;54;19927;-79
2022/05/24 06:16:31;;;;;;;;;;;;;;;17.71;73.77;98810.81;1087796;54;19943;-79
2022/05/24 06:17:33;;;;;;;;;;;;;;;17.78;74.57;98813.44;1087999;54;19939;-78
2022/05/24 06:18:57;;;;;;;;;;;;;;;17.87;74.12;98814.00;1088297;54;19931;-78
2022/05/24 06:19:59;;;;;;;;;;;;;;;17.96;73.95;98806.41;1087878;54;19927;-78
2022/05/24 06:21:06;;;;;;;;;;;;;;;17.76;72.86;98807.44;1088122;54;19942;-78
2022/05/24 06:22:07;;;;;;;;;;;;;;;17.69;73.44;98812.09;1088680;47;19942;-79
2022/05/24 06:23:29;;;;;;;;;;;;;;;;;;;;;
2022/05/24 06:24:31;;;;;;;;;;;;;;;17.87;71.46;98812.13;1088197;54;19945;-80
2022/05/24 06:25:36;;;;;;;;;;;;;;;17.84;71.36;98815.28;1088132;54;19950;-79
2022/05/24 06:26:37;;;;;;;;;;;;;;;17.64;70.21;98807.34;1088303;54;19938;-79
2022/05/24 06:27:41;;;;;;;;;;;;;;;17.60;70.79;98812.38;1088188;54;19949;-78
2022/05/24 06:29:04;;;;;;;;;;;;;;;17.72;71.22;98814.34;1088153;54;19943;-79
2022/05/24 06:30:07;;;;;;;;;;;;;;;17.54;70.56;98810.56;1088613;54;19938;-79
2022/05/24 06:31:14;;;;;;;;;;;;;;;17.60;70.89;98825.06;1087992;54;19943;-79
2022/05/24 06:32:26;;;;;;;;;;;;;;;17.57;71.45;98818.19;1088493;54;20011;-79
2022/05/24 06:33:32;;;;;;;;;;;;;;;17.61;71.57;98816.72;1088464;54;19946;-80
2022/05/24 06:34:33;;;;;;;;;;;;;;;17.55;71.47;98819.47;1088506;54;19938;-79
2022/05/24 06:35:45;;;;;;;;;;;;;;;17.49;71.96;98821.19;1088181;54;19943;-80
2022/05/24 06:37:22;;;;;;;;;;;;;;;17.45;71.68;98822.69;1088582;54;20018;-81
2022/05/24 06:38:29;;;;;;;;;;;;;;;17.40;71.94;98833.31;1088476;54;19927;-79
2022/05/24 06:39:30;;;;;;;;;;;;;;;17.46;71.88;98832.44;1088174;54;19966;-79
2022/05/24 06:40:34;;;;;;;;;;;;;;;17.44;72.04;98834.53;1087386;54;19983;-79
2022/05/24 06:41:35;;;;;;;;;;;;;;;17.44;71.99;98827.25;1087314;54;20467;-78
2022/05/24 06:42:39;;;;;;;;;;;;;;;17.45;72.44;98837.00;1086448;54;19955;-78
2022/05/24 06:43:45;;;;;;;;;;;;;;;17.35;72.67;98830.44;1088236;54;19950;-79
2022/05/24 06:44:46;;;;;;;;;;;;;;;17.33;72.57;98835.22;1087877;54;19963;-80
2022/05/24 06:45:50;;;;;;;;;;;;;;;17.26;72.33;98838.81;1088074;54;19942;-79
2022/05/24 06:46:52;;;;;;;;;;;;;;;17.23;73.08;98839.25;1088200;54;19946;-78
2022/05/24 06:47:56;;;;;;;;;;;;;;;17.30;72.78;98841.91;1086332;54;20524;-78
2022/05/24 06:49:01;;;;;;;;;;;;;;;17.27;72.73;98843.16;1085922;54;19950;-78
2022/05/24 06:50:02;;;;;;;;;;;;;;;17.30;72.52;98850.00;1086939;54;19962;-78
2022/05/24 06:51:10;;;;;;;;;;;;;;;17.24;72.60;98856.28;1087753;54;19933;-78
2022/05/24 06:52:13;;;;;;;;;;;;;;;17.12;71.89;98865.06;1088432;54;19950;-80
2022/05/24 06:53:17;;;;;;;;;;;;;;;17.06;71.75;98865.09;1088054;54;19958;-79
2022/05/24 06:54:21;;;;;;;;;;;;;;;17.07;72.40;98872.16;1088224;54;19954;-79
2022/05/24 06:55:25;;;;;;;;;;;;;;;17.13;72.68;98873.97;1086952;54;19953;-78
2022/05/24 06:56:30;;;;;;;;;;;;;;;16.97;72.19;98878.84;1087268;54;19973;-78
2022/05/24 06:57:31;;;;;;;;;;;;;;;17.00;72.55;98889.19;1087202;54;19958;-78
2022/05/24 06:58:35;;;;;;;;;;;;;;;17.10;72.75;98917.59;1087826;54;19949;-78
2022/05/24 07:03:27;;;;;;;;;;;;;;;15.76;74.32;98959.06;1088229;54;20011;-79
2022/05/24 07:04:28;;;;;;;;;;;;;;;15.65;75.79;98956.97;1087638;54;19957;-79
2022/05/24 07:05:33;;;;;;;;;;;;;;;15.49;76.33;98964.41;1087665;54;20038;-78
2022/05/24 07:06:36;;;;;;;;;;;;;;;15.41;76.60;98961.91;1087412;54;19946;-79
2022/05/24 07:07:37;;;;;;;;;;;;;;;15.13;76.38;98966.34;1087761;54;19923;-78
2022/05/24 07:08:42;;;;;;;;;;;;;;;15.23;76.95;98965.13;1087488;46;19946;-77
2022/05/24 07:09:48;;;;;;;;;;;;;;;15.02;76.46;98964.22;1087997;54;19946;-79
2022/05/24 07:10:49;;;;;;;;;;;;;;;15.07;77.42;98972.53;1088535;46;19950;-78
2022/05/24 07:11:53;;;;;;;;;;;;;;;15.09;77.37;98975.03;1087816;54;19998;-80
2022/05/24 07:12:58;;;;;;;;;;;;;;;15.24;76.64;98972.19;1087463;54;19947;-78
2022/05/24 07:14:02;;;;;;;;;;;;;;;15.17;76.92;98980.22;1087146;54;19998;-79
2022/05/24 07:15:03;;;;;;;;;;;;;;;15.21;77.21;98972.59;1087389;54;19946;-78
2022/05/24 07:16:07;;;;;;;;;;;;;;;15.16;76.95;98983.94;1087105;54;19953;-79
2022/05/24 07:17:08;;;;;;;;;;;;;;;15.09;76.40;98975.88;1087065;54;19950;-80
2022/05/24 07:18:12;;;;;;;;;;;;;;;15.19;78.08;98980.03;1087536;54;19953;-80
2022/05/24 07:19:13;;;;;;;;;;;;;;;15.12;76.95;98986.22;1087399;54;19947;-80
2022/05/24 07:20:17;;;;;;;;;;;;;;;15.17;76.95;98980.22;1087498;54;19946;-80
2022/05/24 07:21:21;;;;;;;;;;;;;;;15.21;77.08;98989.56;1086789;54;19990;-80
2022/05/24 07:22:22;;;;;;;;;;;;;;;15.34;76.87;98978.03;1086977;54;19938;-78
2022/05/24 07:23:27;;;;;;;;;;;;;;;15.27;77.00;98987.94;1086130;54;19947;-78
2022/05/24 07:24:28;;;;;;;;;;;;;;;15.30;76.77;98984.84;1086903;39;20353;-79
2022/05/24 07:25:34;;;;;;;;;;;;;;;15.31;76.83;98983.78;1086671;54;19954;-78
2022/05/24 07:26:39;;;;;;;;;;;;;;;15.42;76.54;98977.84;1086305;54;19939;-79
2022/05/24 07:27:41;;;;;;;;;;;;;;;15.39;76.83;98986.34;1086452;54;19938;-78
2022/05/24 07:28:45;;;;;;;;;;;;;;;15.48;76.82;98991.53;1086349;54;19942;-78
2022/05/24 07:29:47;;;;;;;;;;;;;;;15.40;76.32;98993.34;1086240;54;19950;-77
2022/05/24 07:30:51;;;;;;;;;;;;;;;15.39;76.67;98991.72;1086750;54;19939;-80
2022/05/24 07:31:55;;;;;;;;;;;;;;;15.50;76.03;98992.16;1087062;54;19939;-79
2022/05/24 07:32:57;;;;;;;;;;;;;;;15.55;75.72;98978.91;1086507;54;20533;-78
2022/05/24 07:34:01;;;;;;;;;;;;;;;15.75;76.28;98987.88;1085825;54;19953;-78
2022/05/24 07:35:05;;;;;;;;;;;;;;;15.79;75.71;98985.59;1086232;54;19950;-80
2022/05/24 07:36:10;;;;;;;;;;;;;;;15.92;75.63;98981.31;1086900;54;19939;-79
2022/05/24 07:37:13;;;;;;;;;;;;;;;16.05;75.32;98984.84;1086615;54;19974;-79
2022/05/24 07:38:17;;;;;;;;;;;;;;;16.06;74.62;98988.34;1086677;54;19955;-80
2022/05/24 07:39:19;;;;;;;;;;;;;;;16.04;75.04;98999.34;1087299;54;20026;-81
2022/05/24 07:46:46;;;;;;;;;;;;;;;16.09;74.48;99005.97;1087181;54;19946;-79
2022/05/24 07:47:50;;;;;;;;;;;;;;;16.05;74.35;99009.09;1086796;54;19977;-79
2022/05/24 07:48:54;;;;;;;;;;;;;;;16.18;74.52;99023.59;1087679;54;19951;-80
2022/05/24 07:49:57;;;;;;;;;;;;;;;16.19;74.17;99026.13;1087488;54;19945;-79
2022/05/24 07:51:01;;;;;;;;;;;;;;;16.03;74.21;99018.41;1087431;39;20459;-79
2022/05/24 07:52:02;;;;;;;;;;;;;;;15.95;74.54;99027.53;1087083;54;19953;-80
2022/05/24 07:53:07;;;;;;;;;;;;;;;15.83;73.53;99029.13;1087316;46;19969;-80
2022/05/24 07:54:11;;;;;;;;;;;;;;;15.80;74.28;99037.63;1087867;54;19958;-80
2022/05/24 07:55:13;;;;;;;;;;;;;;;15.92;73.64;99033.31;1088189;54;19942;-78
2022/05/24 07:56:19;;;;;;;;;;;;;;;15.88;72.67;99032.06;1087298;54;21398;-79
2022/05/24 07:57:22;;;;;;;;;;;;;;;15.68;71.80;99029.28;1087657;54;19975;-78
2022/05/24 07:58:27;;;;;;;;;;;;;;;15.69;72.25;99034.47;1087403;54;19971;-79
2022/05/24 07:59:28;;;;;;;;;;;;;;;15.79;72.37;99027.88;1087669;54;19935;-79
2022/05/24 08:00:33;;;;;;;;;;;;;;;15.75;71.83;99033.69;1091216;39;20479;-79
2022/05/24 08:03:03;;;;;;;;;;;;;;;15.90;71.43;99040.78;1087580;54;19962;-80
2022/05/24 08:04:07;;;;;;;;;;;;;;;15.71;71.06;99047.75;1087654;54;19927;-80
2022/05/24 08:05:18;;;;;;;;;;;;;;;15.66;71.23;99051.06;1087708;54;19930;-79
2022/05/24 08:06:23;;;;;;;;;;;;;;;15.66;71.34;99058.28;1087997;54;19927;-79
2022/05/24 08:07:25;;;;;;;;;;;;;;;15.79;71.47;99054.81;1088132;54;19946;-79
2022/05/24 08:08:29;;;;;;;;;;;;;;;15.86;71.27;99061.91;1087956;54;19951;-78
2022/05/24 08:10:08;;;;;;;;;;;;;;;15.81;71.50;99061.69;1088143;54;19967;-79
2022/05/24 08:11:13;;;;;;;;;;;;;;;15.71;70.87;99066.63;1087803;46;19951;-80
2022/05/24 08:12:14;;;;;;;;;;;;;;;15.52;71.07;99065.50;1087956;54;19942;-79
2022/05/24 08:13:22;;;;;;;;;;;;;;;15.40;70.41;99057.16;1088115;54;19950;-80
2022/05/24 08:14:24;;;;;;;;;;;;;;;15.44;71.07;99061.94;1088027;54;19934;-80
2022/05/24 08:15:31;;;;;;;;;;;;;;;15.34;70.57;99058.78;1089437;46;20002;-78
2022/05/24 08:16:33;;;;;;;;;;;;;;;15.37;70.87;99063.78;1089176;46;19950;-78
2022/05/24 08:17:39;;;;;;;;;;;;;;;15.35;71.01;99065.03;1093487;46;19934;-79
2022/05/24 08:18:44;;;;;;;;;;;;;;;15.32;71.01;99081.56;1088979;46;19946;-80
2022/05/24 08:19:46;;;;;;;;;;;;;;;15.43;70.41;99073.75;1087978;54;19950;-79
2022/05/24 08:20:50;;;;;;;;;;;;;;;15.53;69.96;99075.25;1088102;54;19950;-79
2022/05/24 08:21:51;;;;;;;;;;;;;;;15.55;70.18;99075.88;1088337;46;19951;-79
2022/05/24 09:08:18;;;;;;;;;;;;;;;16.83;64.21;99103.91;1087884;54;19949;-81
2022/05/24 09:09:40;;;;;;;;;;;;;;;16.91;64.21;99094.78;1092939;39;20759;-83
2022/05/24 09:10:47;;;;;;;;;;;;;;;16.99;63.91;99086.50;1088470;54;19927;-83
2022/05/24 09:11:59;;;;;;;;;;;;;;;17.05;63.53;99092.91;1088465;54;19943;-86
2022/05/24 09:13:13;;;;;;;;;;;;;;;16.95;63.79;99096.88;1088348;54;19949;-84
2022/05/24 09:14:20;;;;;;;;;;;;;;;16.89;63.61;99092.28;1092259;46;19923;-85
2022/05/24 09:16:39;;;;;;;;;;;;;;;16.79;63.18;99089.19;1087944;54;19942;-84
2022/05/24 09:17:54;;;;;;;;;;;;;;;16.79;62.66;99092.69;1097250;39;20894;-83
2022/05/24 09:19:00;;;;;;;;;;;;;;;16.76;62.18;99103.09;1088564;54;19929;-84